createdAt,value
2022-12-20T00:01:49.673Z,22.02
2022-12-20T00:04:51.102Z,20.27
2022-12-20T00:07:52.419Z,21.90
2022-12-20T00:10:53.707Z,19.33
2022-12-20T00:13:55.059Z,20.33
2022-12-20T00:16:56.355Z,23.45
2022-12-20T00:19:57.685Z,20.05
2022-12-20T00:22:58.974Z,20.77
2022-12-20T00:26:00.274Z,20.52
2022-12-20T00:29:01.611Z,21.52
2022-12-20T00:32:03.014Z,19.45
2022-12-20T00:35:04.351Z,20.33
2022-12-20T00:38:05.662Z,20.97
2022-12-20T00:41:06.979Z,21.77
2022-12-20T00:44:08.295Z,20.65
2022-12-20T00:47:09.644Z,22.00
2022-12-20T00:50:11.014Z,19.17
2022-12-20T00:53:12.339Z,19.50
2022-12-20T00:56:13.682Z,19.50
2022-12-20T00:59:14.973Z,20.88
2022-12-20T01:02:16.434Z,22.40
2022-12-20T01:05:17.918Z,19.58
2022-12-20T01:08:19.242Z,21.03
2022-12-20T01:11:20.564Z,19.85
2022-12-20T01:14:21.880Z,20.02
2022-12-20T01:17:23.151Z,20.73
2022-12-20T01:20:24.482Z,20.60
2022-12-20T01:23:25.766Z,19.60
2022-12-20T01:26:27.078Z,20.13
2022-12-20T01:29:28.388Z,21.52
2022-12-20T01:32:29.700Z,19.25
2022-12-20T01:35:31.012Z,19.70
2022-12-20T01:38:32.280Z,21.13
2022-12-20T01:41:33.593Z,22.73
2022-12-20T01:44:34.885Z,18.80
2022-12-20T01:47:36.196Z,21.83
2022-12-20T01:50:37.504Z,19.98
2022-12-20T01:53:38.822Z,20.73
2022-12-20T01:56:40.159Z,20.77
2022-12-20T01:59:41.438Z,19.27
2022-12-20T02:02:42.822Z,20.02
2022-12-20T02:05:44.219Z,20.75
2022-12-20T02:08:45.522Z,20.03
2022-12-20T02:11:46.813Z,20.23
2022-12-20T02:14:48.091Z,22.65
2022-12-20T02:17:49.389Z,21.25
2022-12-20T02:20:50.691Z,22.35
2022-12-20T02:23:51.982Z,19.53
2022-12-20T02:26:53.308Z,20.90
2022-12-20T02:29:54.624Z,22.23
2022-12-20T02:32:55.933Z,20.58
2022-12-20T02:35:57.247Z,21.52
2022-12-20T02:38:58.544Z,21.07
2022-12-20T02:41:59.838Z,21.48
2022-12-20T02:45:01.136Z,21.65
2022-12-20T02:48:02.455Z,20.90
2022-12-20T02:51:03.783Z,24.13
2022-12-20T02:54:05.064Z,19.97
2022-12-20T02:57:06.385Z,21.25
2022-12-20T03:00:07.703Z,19.40
2022-12-20T03:03:09.132Z,20.38
2022-12-20T03:06:10.613Z,19.58
2022-12-20T03:09:11.923Z,23.17
2022-12-20T03:12:13.233Z,19.77
2022-12-20T03:15:14.563Z,21.10
2022-12-20T03:18:15.861Z,20.98
2022-12-20T03:21:17.157Z,21.48
2022-12-20T03:24:18.456Z,22.63
2022-12-20T03:27:19.750Z,22.23
2022-12-20T03:30:21.049Z,22.40
2022-12-20T03:33:22.346Z,21.80
2022-12-20T03:36:23.692Z,21.00
2022-12-20T03:39:25.034Z,23.27
2022-12-20T03:42:26.342Z,23.30
2022-12-20T03:45:27.640Z,20.70
2022-12-20T03:48:28.929Z,21.42
2022-12-20T03:51:30.227Z,20.35
2022-12-20T03:54:31.524Z,21.23
2022-12-20T03:57:32.835Z,21.02
2022-12-20T04:00:34.148Z,22.15
2022-12-20T04:03:35.509Z,19.50
2022-12-20T04:06:36.860Z,19.90
2022-12-20T04:09:38.158Z,21.17
2022-12-20T04:12:39.508Z,18.52
2022-12-20T04:15:40.834Z,21.23
2022-12-20T04:18:42.154Z,24.02
2022-12-20T04:21:43.468Z,22.38
2022-12-20T04:24:44.757Z,19.77
2022-12-20T04:27:46.064Z,20.77
2022-12-20T04:30:47.394Z,18.80
2022-12-20T04:33:48.739Z,19.65
2022-12-20T04:36:50.072Z,20.27
2022-12-20T04:39:51.377Z,20.93
2022-12-20T04:42:52.679Z,19.88
2022-12-20T04:45:54.072Z,20.95
2022-12-20T04:48:57.758Z,21.83
2022-12-20T04:51:59.945Z,21.20
2022-12-20T04:55:01.254Z,21.63
2022-12-20T04:58:07.523Z,21.58
2022-12-20T05:01:09.229Z,22.20
2022-12-20T05:04:10.633Z,23.30
2022-12-20T05:07:11.955Z,22.63
2022-12-20T05:10:13.283Z,21.37
2022-12-20T05:13:14.573Z,22.98
2022-12-20T05:16:15.928Z,21.25
2022-12-20T05:19:17.278Z,22.70
2022-12-20T05:22:18.578Z,21.65
2022-12-20T05:25:19.882Z,21.60
2022-12-20T05:28:21.191Z,21.88
2022-12-20T05:31:22.542Z,21.52
2022-12-20T05:34:23.897Z,21.70
2022-12-20T05:37:25.203Z,23.02
2022-12-20T05:40:26.500Z,21.50
2022-12-20T05:43:27.800Z,22.50
2022-12-20T05:46:29.117Z,23.17
2022-12-20T05:49:30.529Z,23.23
2022-12-20T05:52:31.826Z,22.35
2022-12-20T05:55:33.112Z,21.30
2022-12-20T05:58:34.426Z,24.05
2022-12-20T06:01:35.812Z,24.80
2022-12-20T06:04:37.212Z,23.20
2022-12-20T06:07:38.621Z,22.05
2022-12-20T06:10:39.924Z,21.97
2022-12-20T06:13:41.231Z,24.80
2022-12-20T06:16:42.619Z,24.85
2022-12-20T06:19:44.022Z,22.70
2022-12-20T06:22:45.335Z,24.67
2022-12-20T06:25:46.637Z,25.03
2022-12-20T06:28:47.952Z,24.88
2022-12-20T06:31:49.330Z,25.88
2022-12-20T06:34:50.713Z,23.02
2022-12-20T06:37:52.012Z,24.35
2022-12-20T06:40:53.330Z,25.77
2022-12-20T06:43:54.650Z,22.85
2022-12-20T06:46:55.953Z,28.90
2022-12-20T06:49:57.381Z,24.58
2022-12-20T06:52:58.689Z,27.70
2022-12-20T06:56:00.055Z,31.93
2022-12-20T06:59:01.389Z,24.45
2022-12-20T07:02:02.933Z,38.80
2022-12-20T07:05:04.412Z,30.40
2022-12-20T07:08:05.759Z,106.55
2022-12-20T07:11:07.159Z,70.93
2022-12-20T07:14:08.506Z,68.75
2022-12-20T07:17:09.894Z,60.28
2022-12-20T07:20:13.899Z,59.03
2022-12-20T07:23:15.808Z,50.65
2022-12-20T07:26:17.125Z,57.87
2022-12-20T07:29:18.444Z,67.28
2022-12-20T07:32:19.900Z,49.97
2022-12-20T07:35:21.366Z,45.50
2022-12-20T07:38:22.679Z,56.45
2022-12-20T07:41:23.999Z,44.87
2022-12-20T07:44:25.309Z,53.45
2022-12-20T07:47:26.633Z,46.92
2022-12-20T07:50:27.996Z,51.08
2022-12-20T07:53:29.660Z,58.63
2022-12-20T07:56:34.585Z,46.93
2022-12-20T07:59:38.735Z,44.72
2022-12-20T08:02:40.279Z,50.42
2022-12-20T08:05:41.670Z,59.67
2022-12-20T08:08:42.956Z,46.92
2022-12-20T08:11:44.262Z,43.20
2022-12-20T08:14:45.574Z,48.67
2022-12-20T08:17:46.882Z,46.03
2022-12-20T08:20:48.175Z,48.42
2022-12-20T08:23:49.500Z,41.70
2022-12-20T08:26:50.816Z,42.10
2022-12-20T08:29:52.114Z,38.28
2022-12-20T08:32:53.454Z,42.78
2022-12-20T08:35:54.766Z,39.75
2022-12-20T08:38:56.065Z,39.20
2022-12-20T08:41:57.418Z,35.57
2022-12-20T08:44:58.743Z,32.15
2022-12-20T08:48:00.091Z,34.25
2022-12-20T08:51:01.614Z,38.58
2022-12-20T08:54:02.989Z,34.90
2022-12-20T08:57:04.278Z,37.60
2022-12-20T09:00:05.619Z,36.80
2022-12-20T09:03:07.194Z,31.75
2022-12-20T09:06:08.684Z,33.78
2022-12-20T09:09:10.098Z,37.83
2022-12-20T09:12:11.454Z,32.30
2022-12-20T09:15:12.787Z,37.17
2022-12-20T09:18:14.169Z,30.00
2022-12-20T09:21:15.515Z,34.67
2022-12-20T09:24:16.861Z,40.58
2022-12-20T09:27:18.316Z,40.50
2022-12-20T09:30:19.612Z,34.75
2022-12-20T09:33:20.924Z,48.17
2022-12-20T09:36:22.230Z,36.80
2022-12-20T09:39:23.547Z,42.28
2022-12-20T09:42:24.868Z,67.83
2022-12-20T09:45:26.172Z,76.50
2022-12-20T09:48:27.500Z,84.20
2022-12-20T09:51:28.814Z,77.03
2022-12-20T09:54:30.139Z,62.78
2022-12-20T09:57:31.538Z,66.40
2022-12-20T10:00:32.837Z,57.53
2022-12-20T10:03:34.270Z,47.72
2022-12-20T10:06:35.683Z,44.92
2022-12-20T10:09:36.976Z,48.47
2022-12-20T10:12:38.284Z,57.40
2022-12-20T10:15:39.654Z,57.40
2022-12-20T10:18:41.014Z,50.35
2022-12-20T10:21:42.327Z,45.88
2022-12-20T10:24:43.647Z,45.88
2022-12-20T10:27:44.970Z,38.13
2022-12-20T10:30:46.298Z,45.85
2022-12-20T10:33:47.692Z,38.75
2022-12-20T10:36:49.006Z,43.90
2022-12-20T10:39:50.295Z,58.45
2022-12-20T10:42:51.614Z,40.70
2022-12-20T10:45:54.135Z,40.28
2022-12-20T10:48:55.440Z,36.67
2022-12-20T10:51:56.749Z,40.75
2022-12-20T10:54:58.033Z,42.13
2022-12-20T10:57:59.360Z,38.10
2022-12-20T11:01:00.677Z,42.53
2022-12-20T11:04:02.088Z,42.38
2022-12-20T11:07:03.518Z,42.55
2022-12-20T11:10:04.805Z,62.35
2022-12-20T11:13:06.178Z,50.73
2022-12-20T11:16:07.503Z,48.40
2022-12-20T11:19:08.973Z,41.33
2022-12-20T11:22:10.277Z,44.40
2022-12-20T11:25:13.670Z,46.15
2022-12-20T11:28:15.167Z,42.83
2022-12-20T11:31:16.549Z,42.72
2022-12-20T11:34:17.872Z,40.47
2022-12-20T11:37:19.212Z,45.08
2022-12-20T11:40:20.621Z,43.42
2022-12-20T11:43:21.968Z,44.30
2022-12-20T11:46:23.306Z,43.53
2022-12-20T11:49:24.651Z,59.03
2022-12-20T11:52:25.968Z,50.95
2022-12-20T11:55:27.343Z,43.45
2022-12-20T11:58:28.704Z,50.10
2022-12-20T12:01:30.923Z,40.45
2022-12-20T12:04:32.244Z,47.42
2022-12-20T12:07:33.565Z,42.97
2022-12-20T12:10:34.887Z,82.38
2022-12-20T12:13:36.233Z,107.23
2022-12-20T12:16:37.656Z,75.60
2022-12-20T12:19:39.054Z,77.55
2022-12-20T12:22:40.352Z,70.10
2022-12-20T12:25:41.675Z,90.13
2022-12-20T12:28:43.007Z,90.97
2022-12-20T12:31:44.453Z,83.60
2022-12-20T12:34:45.758Z,87.05
2022-12-20T12:37:47.090Z,77.40
2022-12-20T12:40:52.521Z,75.55
2022-12-20T12:43:54.370Z,65.47
2022-12-20T12:46:55.683Z,64.82
2022-12-20T12:49:56.988Z,52.92
2022-12-20T12:52:58.379Z,62.05
2022-12-20T12:56:19.415Z,59.22
2022-12-20T12:59:20.957Z,58.20
2022-12-20T13:02:22.618Z,57.25
2022-12-20T13:05:26.373Z,59.50
2022-12-20T13:08:27.946Z,51.42
2022-12-20T13:11:29.248Z,50.90
2022-12-20T13:14:30.548Z,46.70
2022-12-20T13:17:31.877Z,57.67
2022-12-20T13:20:33.224Z,54.65
2022-12-20T13:23:34.538Z,52.70
2022-12-20T13:26:35.858Z,48.63
2022-12-20T13:29:37.157Z,62.87
2022-12-20T13:32:38.530Z,63.72
2022-12-20T13:35:39.865Z,57.58
2022-12-20T13:38:41.181Z,49.83
2022-12-20T13:41:42.515Z,41.10
2022-12-20T13:44:43.809Z,47.03
2022-12-20T13:47:45.120Z,46.50
2022-12-20T13:50:46.431Z,48.22
2022-12-20T13:53:47.737Z,43.92
2022-12-20T13:56:49.029Z,43.45
2022-12-20T13:59:50.322Z,44.63
2022-12-20T14:02:51.797Z,51.05
2022-12-20T14:05:53.218Z,47.70
2022-12-20T14:08:54.548Z,44.90
2022-12-20T14:11:55.981Z,44.63
2022-12-20T14:14:57.273Z,91.70
2022-12-20T14:17:58.561Z,73.88
2022-12-20T14:20:59.902Z,69.43
2022-12-20T14:24:01.207Z,59.25
2022-12-20T14:27:02.533Z,53.20
2022-12-20T14:30:03.831Z,49.63
2022-12-20T14:33:05.136Z,52.88
2022-12-20T14:36:06.477Z,43.45
2022-12-20T14:42:22.897Z,46.17
2022-12-20T14:45:24.238Z,46.17
2022-12-20T14:48:25.587Z,46.90
2022-12-20T14:51:26.916Z,45.33
2022-12-20T14:57:49.522Z,45.90
2022-12-20T15:00:50.865Z,52.60
2022-12-20T15:03:52.911Z,40.80
2022-12-20T15:06:54.433Z,40.20
2022-12-20T15:09:55.722Z,44.33
2022-12-20T15:12:57.043Z,46.38
2022-12-20T15:15:58.372Z,54.87
2022-12-20T15:18:59.695Z,46.25
2022-12-20T15:22:01.005Z,68.07
2022-12-20T15:25:02.335Z,49.45
2022-12-20T15:28:03.654Z,46.33
2022-12-20T15:31:05.048Z,37.10
2022-12-20T15:34:06.449Z,42.10
2022-12-20T15:37:09.313Z,49.08
2022-12-20T15:40:15.530Z,49.20
2022-12-20T15:43:16.843Z,45.45
2022-12-20T15:46:18.181Z,44.70
2022-12-20T15:49:19.528Z,41.05
2022-12-20T15:52:20.958Z,43.65
2022-12-20T15:55:22.267Z,47.38
2022-12-20T15:58:23.591Z,44.50
2022-12-20T16:01:24.948Z,47.17
2022-12-20T16:04:26.480Z,47.38
2022-12-20T16:07:27.866Z,46.17
2022-12-20T16:10:29.174Z,52.83
2022-12-20T16:13:30.483Z,51.45
2022-12-20T16:16:31.862Z,44.80
2022-12-20T16:19:33.234Z,132.70
2022-12-20T16:22:34.519Z,113.72
2022-12-20T16:25:35.825Z,107.82
2022-12-20T16:28:37.129Z,91.22
2022-12-20T16:31:38.504Z,96.83
2022-12-20T16:34:40.037Z,88.65
2022-12-20T16:37:41.338Z,76.65
2022-12-20T16:40:42.703Z,81.15
2022-12-20T16:43:43.997Z,79.10
2022-12-20T16:46:45.357Z,62.23
2022-12-20T16:49:52.384Z,77.75
2022-12-20T16:52:54.482Z,64.57
2022-12-20T16:55:55.814Z,60.03
2022-12-20T16:59:18.653Z,60.22
2022-12-20T17:02:18.600Z,52.53
2022-12-20T17:05:20.121Z,52.10
2022-12-20T17:11:40.096Z,52.75
2022-12-20T17:14:41.436Z,56.03
2022-12-20T17:17:42.734Z,56.63
2022-12-20T17:20:44.046Z,49.38
2022-12-20T17:23:45.380Z,49.53
2022-12-20T17:26:46.696Z,49.83
2022-12-20T17:29:48.085Z,46.55
2022-12-20T17:32:49.431Z,49.37
2022-12-20T17:35:50.733Z,47.60
2022-12-20T17:38:52.088Z,47.58
2022-12-20T17:41:53.385Z,47.30
2022-12-20T17:48:09.810Z,46.07
2022-12-20T17:51:11.131Z,41.95
2022-12-20T17:54:12.548Z,42.88
2022-12-20T17:57:13.875Z,38.20
2022-12-20T18:00:15.203Z,40.38
2022-12-20T18:03:53.454Z,40.73
2022-12-20T18:06:37.775Z,41.58
2022-12-20T18:09:39.110Z,37.92
2022-12-20T18:12:40.723Z,40.20
2022-12-20T18:15:42.079Z,41.30
2022-12-20T18:18:43.390Z,38.30
2022-12-20T18:21:44.693Z,37.30
2022-12-20T18:24:46.077Z,38.25
2022-12-20T18:27:47.409Z,35.22
2022-12-20T18:30:48.993Z,37.20
2022-12-20T18:33:57.292Z,35.50
2022-12-20T18:36:59.241Z,40.95
2022-12-20T18:40:00.544Z,38.00
2022-12-20T18:43:06.131Z,38.17
2022-12-20T18:46:08.256Z,37.20
2022-12-20T18:49:09.722Z,37.90
2022-12-20T18:52:11.075Z,35.53
2022-12-20T18:55:12.416Z,34.92
2022-12-20T18:58:14.462Z,39.10
2022-12-20T19:01:16.356Z,35.17
2022-12-20T19:04:24.037Z,35.30
2022-12-20T19:07:26.074Z,35.55
2022-12-20T19:10:27.778Z,32.33
2022-12-20T19:13:29.685Z,35.97
2022-12-20T19:16:31.866Z,30.88
2022-12-20T19:19:34.058Z,32.70
2022-12-20T19:22:35.734Z,32.40
2022-12-20T19:25:37.435Z,33.63
2022-12-20T19:28:38.830Z,33.20
2022-12-20T19:31:40.547Z,32.95
2022-12-20T19:34:42.053Z,34.40
2022-12-20T19:37:43.410Z,33.25
2022-12-20T19:40:44.872Z,34.47
2022-12-20T19:43:48.914Z,33.28
2022-12-20T19:46:50.648Z,31.48
2022-12-20T19:49:52.513Z,32.87
2022-12-20T19:52:53.892Z,32.92
2022-12-20T19:55:55.207Z,31.30
2022-12-20T19:58:56.500Z,31.30
2022-12-20T20:01:58.164Z,33.10
2022-12-20T20:04:59.629Z,32.67
2022-12-20T20:08:00.928Z,31.48
2022-12-20T20:11:08.764Z,30.45
2022-12-20T20:14:11.273Z,35.30
2022-12-20T20:17:12.858Z,32.33
2022-12-20T20:20:14.416Z,32.10
2022-12-20T20:23:15.777Z,32.00
2022-12-20T20:26:17.059Z,30.80
2022-12-20T20:29:18.433Z,31.88
2022-12-20T20:32:20.083Z,33.00
2022-12-20T20:35:21.445Z,31.07
2022-12-20T20:38:22.753Z,30.73
2022-12-20T20:41:24.041Z,33.13
2022-12-20T20:44:25.397Z,31.20
2022-12-20T20:47:26.872Z,31.25
2022-12-20T20:50:28.216Z,30.90
2022-12-20T20:53:33.435Z,32.45
2022-12-20T20:56:35.388Z,31.58
2022-12-20T20:59:36.704Z,30.75
2022-12-20T21:02:38.514Z,31.73
2022-12-20T21:09:01.267Z,30.88
2022-12-20T21:12:02.764Z,33.15
2022-12-20T21:18:25.724Z,29.38
2022-12-20T21:21:27.040Z,32.17
2022-12-20T21:24:28.360Z,29.70
2022-12-20T21:27:29.693Z,29.25
2022-12-20T21:30:30.995Z,30.58
2022-12-20T21:33:32.296Z,29.85
2022-12-20T21:36:33.602Z,32.67
2022-12-20T21:39:34.907Z,31.25
2022-12-20T21:42:36.187Z,29.63
2022-12-20T21:45:37.504Z,29.85
2022-12-20T21:48:38.873Z,30.00
2022-12-20T21:51:40.182Z,29.37
2022-12-20T21:54:41.487Z,30.48
2022-12-20T21:57:42.797Z,29.35
2022-12-20T22:00:47.115Z,30.60
2022-12-20T22:03:52.319Z,28.25
2022-12-20T22:06:53.659Z,32.63
2022-12-20T22:09:54.967Z,30.85
2022-12-20T22:12:56.316Z,30.00
2022-12-20T22:15:57.722Z,29.98
2022-12-20T22:18:59.093Z,29.95
2022-12-20T22:22:00.386Z,31.67
2022-12-20T22:25:01.699Z,29.60
2022-12-20T22:28:02.990Z,31.42
2022-12-20T22:31:04.307Z,31.02
2022-12-20T22:34:05.615Z,29.67
2022-12-20T22:37:06.912Z,29.07
2022-12-20T22:40:08.237Z,30.58
2022-12-20T22:43:09.557Z,31.25
2022-12-20T22:46:14.025Z,30.95
2022-12-20T22:49:15.318Z,29.52
2022-12-20T22:52:16.562Z,29.23
2022-12-20T22:55:17.816Z,30.42
2022-12-20T22:58:19.056Z,28.33
2022-12-20T23:01:20.412Z,28.17
2022-12-20T23:04:21.711Z,28.27
2022-12-20T23:07:22.996Z,27.77
2022-12-20T23:10:24.230Z,29.20
2022-12-20T23:13:25.551Z,29.17
2022-12-20T23:16:26.852Z,28.42
2022-12-20T23:19:28.195Z,26.67
2022-12-20T23:22:29.435Z,27.20
2022-12-20T23:25:30.685Z,27.42
2022-12-20T23:28:31.960Z,30.10
2022-12-20T23:31:33.247Z,27.90
2022-12-20T23:34:34.517Z,29.50
2022-12-20T23:37:35.771Z,29.30
2022-12-20T23:40:37.010Z,28.88
2022-12-20T23:43:38.258Z,29.50
2022-12-20T23:46:39.542Z,29.25
2022-12-20T23:49:40.792Z,29.00
2022-12-20T23:52:42.049Z,29.60
2022-12-20T23:55:43.361Z,29.27
2022-12-20T23:58:44.616Z,28.73
